Time;durP1;ratioP1;P1;durP2;ratioP2;P2;SDS_P1;SDS_P2;PMS_P1;PMS_P2;Temp;Humidity;BMP_temperature;BMP_pressure;BME280_temperature;BME280_humidity;BME280_pressure;Samples;Min_cycle;Max_cycle;Signal;HPM_P1;HPM_P2
2023/10/16 00:02:14;;;;;;;;;;;;;;;10.03;35.19;100369.44;5073920;28;19912;-68
2023/10/16 00:04:43;;;;;;;;;;;;;;;9.96;36.17;100379.25;5086275;28;19920;-68
2023/10/16 00:07:10;;;;;;;;;;;;;;;9.99;35.76;100383.41;5074307;28;19913;-68
2023/10/16 00:09:35;;;;;;;;;;;;;;;9.93;35.98;100384.19;5074222;28;19912;-68
2023/10/16 00:12:02;;;;;;;;;;;;;;;9.84;35.65;100384.31;5080449;28;20266;-68
2023/10/16 00:14:30;;;;;;;;;;;;;;;9.80;36.04;100385.69;5072783;28;19924;-68
2023/10/16 00:16:56;;;;;;;;;;;;;;;9.76;36.22;100378.25;5085126;28;19977;-68
2023/10/16 00:19:24;;;;;;;;;;;;;;;9.73;36.35;100378.59;5085540;28;19916;-68
2023/10/16 00:21:52;;;;;;;;;;;;;;;9.70;35.82;100387.88;5074789;28;19913;-68
2023/10/16 00:24:17;;;;;;;;;;;;;;;9.76;36.70;100384.41;5073349;28;19916;-68
2023/10/16 00:26:49;;;;;;;;;;;;;;;9.73;36.58;100386.66;5073727;28;19970;-68
2023/10/16 00:29:19;;;;;;;;;;;;;;;9.71;36.29;100389.53;5073368;28;19979;-67
2023/10/16 00:31:45;;;;;;;;;;;;;;;9.67;36.10;100391.75;5056997;28;19939;-66
2023/10/16 00:34:11;;;;;;;;;;;;;;;9.66;36.57;100394.66;5062968;28;19938;-67
2023/10/16 00:36:36;;;;;;;;;;;;;;;9.62;36.82;100398.69;5083223;28;20369;-67
2023/10/16 00:39:13;;;;;;;;;;;;;;;9.62;36.29;100404.91;5070906;28;19993;-67
2023/10/16 00:41:44;;;;;;;;;;;;;;;9.61;37.18;100397.06;5071650;28;20296;-66
2023/10/16 00:44:09;;;;;;;;;;;;;;;9.65;36.29;100399.16;5072193;28;19917;-68
2023/10/16 00:46:38;;;;;;;;;;;;;;;9.65;36.76;100409.06;5073413;28;19920;-65
2023/10/16 00:49:05;;;;;;;;;;;;;;;9.64;37.00;100410.09;5075793;28;20288;-66
2023/10/16 00:51:32;;;;;;;;;;;;;;;9.66;36.44;100426.81;5089257;28;19912;-66
2023/10/16 00:53:59;;;;;;;;;;;;;;;9.61;37.00;100423.88;5081270;28;19916;-66
2023/10/16 00:56:27;;;;;;;;;;;;;;;9.58;36.70;100426.91;5081647;28;19963;-67
2023/10/16 00:58:55;;;;;;;;;;;;;;;9.54;36.85;100434.50;5085186;28;19931;-66
2023/10/16 01:01:21;;;;;;;;;;;;;;;9.51;36.79;100424.16;5094112;28;19912;-67
2023/10/16 01:03:48;;;;;;;;;;;;;;;9.53;37.27;100429.31;5072833;28;19913;-67
2023/10/16 01:06:16;;;;;;;;;;;;;;;9.41;37.89;100423.63;5050401;28;19913;-68
2023/10/16 01:08:43;;;;;;;;;;;;;;;9.46;38.36;100423.88;5072028;28;19921;-68
2023/10/16 01:11:09;;;;;;;;;;;;;;;9.50;36.20;100434.03;5075576;28;19920;-68
2023/10/16 01:13:38;;;;;;;;;;;;;;;9.50;36.22;100435.91;5072553;28;19912;-68
2023/10/16 01:16:04;;;;;;;;;;;;;;;9.44;36.29;100426.75;5082763;28;19969;-69
2023/10/16 01:18:31;;;;;;;;;;;;;;;9.43;36.82;100433.13;5070279;28;20397;-68
2023/10/16 01:20:57;;;;;;;;;;;;;;;9.38;36.95;100432.88;5072107;28;19912;-68
2023/10/16 01:23:22;;;;;;;;;;;;;;;9.38;36.76;100445.41;5077292;28;20316;-67
2023/10/16 01:25:49;;;;;;;;;;;;;;;9.38;37.22;100440.91;5052242;28;19919;-67
2023/10/16 01:28:17;;;;;;;;;;;;;;;9.42;36.63;100449.41;5085390;28;19986;-67
2023/10/16 01:30:43;;;;;;;;;;;;;;;9.41;36.50;100456.59;5081042;28;20423;-67
2023/10/16 01:33:09;;;;;;;;;;;;;;;9.35;36.44;100460.03;5092056;28;19916;-67
2023/10/16 01:35:36;;;;;;;;;;;;;;;9.35;36.59;100468.06;5092676;28;20014;-66
2023/10/16 01:38:14;;;;;;;;;;;;;;;9.27;36.70;100468.19;5072706;28;19919;-66
2023/10/16 01:40:40;;;;;;;;;;;;;;;9.24;37.07;100466.69;5068847;28;20384;-67
2023/10/16 01:43:06;;;;;;;;;;;;;;;8.77;36.53;100400.09;5052990;28;19920;-67
2023/10/16 01:45:31;;;;;;;;;;;;;;;9.16;36.77;100469.47;5072476;28;19916;-66
2023/10/16 01:47:56;;;;;;;;;;;;;;;9.07;37.17;100471.41;5091707;28;19912;-67
2023/10/16 01:50:22;;;;;;;;;;;;;;;9.03;37.62;100472.78;5091022;28;19916;-66
2023/10/16 01:52:48;;;;;;;;;;;;;;;9.02;37.49;100476.47;5091350;28;19995;-67
2023/10/16 01:55:16;;;;;;;;;;;;;;;9.01;37.23;100482.84;5080746;28;20015;-67
2023/10/16 01:57:44;;;;;;;;;;;;;;;8.97;37.50;100481.56;5071834;28;20265;-67
2023/10/16 02:00:16;;;;;;;;;;;;;;;9.02;37.66;100483.69;5070948;28;19913;-67
2023/10/16 02:02:42;;;;;;;;;;;;;;;9.04;37.41;100487.81;5071022;28;20057;-67
2023/10/16 02:05:09;;;;;;;;;;;;;;;9.02;37.22;100479.13;5072756;28;19916;-67
2023/10/16 02:07:45;;;;;;;;;;;;;;;9.01;36.89;100482.84;5072349;28;20304;-67
2023/10/16 02:10:13;;;;;;;;;;;;;;;9.02;36.67;100489.03;5090373;28;20393;-67
2023/10/16 02:12:39;;;;;;;;;;;;;;;9.02;36.70;100489.84;5077961;28;19912;-67
2023/10/16 02:15:06;;;;;;;;;;;;;;;9.05;37.52;100499.41;5074618;28;19925;-67
2023/10/16 02:17:32;;;;;;;;;;;;;;;9.02;37.03;100502.44;5072501;28;19912;-67
2023/10/16 02:19:57;;;;;;;;;;;;;;;9.00;36.93;100499.09;5071582;28;20280;-67
2023/10/16 02:22:23;;;;;;;;;;;;;;;9.01;36.72;100501.59;5056864;28;19916;-68
2023/10/16 02:24:50;;;;;;;;;;;;;;;8.97;36.94;100513.69;5071682;28;20008;-66
2023/10/16 02:27:18;;;;;;;;;;;;;;;8.96;36.74;100511.19;5071819;28;20003;-67
2023/10/16 02:29:45;;;;;;;;;;;;;;;8.90;37.04;100510.91;5080776;28;19959;-67
2023/10/16 02:32:12;;;;;;;;;;;;;;;8.88;36.59;100514.78;5086030;28;19912;-67
2023/10/16 02:34:37;;;;;;;;;;;;;;;8.85;36.72;100513.28;5053918;28;19940;-67
2023/10/16 02:37:06;;;;;;;;;;;;;;;8.87;36.82;100521.16;5075793;28;19955;-67
2023/10/16 02:39:37;;;;;;;;;;;;;;;8.80;36.87;100515.66;5073798;28;19920;-67
2023/10/16 02:42:08;;;;;;;;;;;;;;;8.78;36.75;100522.22;5075246;28;20404;-67
2023/10/16 02:44:39;;;;;;;;;;;;;;;8.74;37.20;100526.28;5074268;28;19912;-67
2023/10/16 02:47:06;;;;;;;;;;;;;;;8.70;36.95;100523.97;5075815;28;19912;-67
2023/10/16 02:49:33;;;;;;;;;;;;;;;8.68;36.99;100522.47;5074635;28;19913;-67
2023/10/16 02:51:58;;;;;;;;;;;;;;;8.63;37.17;100525.69;5074421;28;20399;-67
2023/10/16 02:54:24;;;;;;;;;;;;;;;8.60;37.31;100522.53;5085567;28;19912;-67
2023/10/16 02:56:50;;;;;;;;;;;;;;;8.58;36.94;100527.25;5082039;28;19916;-67
2023/10/16 02:59:18;;;;;;;;;;;;;;;8.56;37.25;100532.75;5078282;28;20321;-67
2023/10/16 03:01:45;;;;;;;;;;;;;;;8.58;37.67;100532.59;5074194;28;19913;-68
2023/10/16 03:04:10;;;;;;;;;;;;;;;8.55;37.38;100543.66;5055715;28;19912;-68
2023/10/16 03:06:39;;;;;;;;;;;;;;;8.60;37.38;100551.97;5075394;28;19974;-68
2023/10/16 03:09:25;;;;;;;;;;;;;;;8.60;37.24;100554.66;5078426;28;20288;-68
2023/10/16 03:11:57;;;;;;;;;;;;;;;8.60;36.84;100554.66;5077461;28;20008;-68
2023/10/16 03:14:22;;;;;;;;;;;;;;;8.65;37.11;100561.13;5053632;28;19953;-68
2023/10/16 03:16:48;;;;;;;;;;;;;;;8.66;37.09;100559.31;5084270;28;19917;-68
2023/10/16 03:19:16;;;;;;;;;;;;;;;8.57;36.98;100558.53;5068342;28;19978;-68
2023/10/16 03:21:45;;;;;;;;;;;;;;;8.55;37.78;100554.38;5074356;28;20428;-67
2023/10/16 03:24:10;;;;;;;;;;;;;;;8.57;37.84;100566.56;5075381;28;19916;-67
2023/10/16 03:26:42;;;;;;;;;;;;;;;8.50;38.58;100569.09;5081871;28;19916;-66
2023/10/16 03:29:07;;;;;;;;;;;;;;;8.55;38.05;100573.13;5087276;28;20252;-66
2023/10/16 03:31:39;;;;;;;;;;;;;;;8.59;37.81;100579.78;5083398;28;19916;-67
2023/10/16 03:34:05;;;;;;;;;;;;;;;8.57;37.47;100571.09;5082235;28;19916;-67
2023/10/16 03:36:31;;;;;;;;;;;;;;;8.49;37.91;100575.47;5071897;28;19994;-67
2023/10/16 03:38:57;;;;;;;;;;;;;;;8.45;37.32;100578.69;5054691;28;20387;-67
2023/10/16 03:43:58;;;;;;;;;;;;;;;8.39;37.91;100574.84;5074600;28;20003;-66
2023/10/16 03:46:27;;;;;;;;;;;;;;;8.37;37.77;100587.56;5078292;28;19939;-66
2023/10/16 03:48:52;;;;;;;;;;;;;;;8.38;37.88;100594.59;5076115;28;20010;-66
2023/10/16 03:51:17;;;;;;;;;;;;;;;8.38;37.85;100591.09;5072990;28;19970;-67
2023/10/16 03:53:44;;;;;;;;;;;;;;;8.34;38.32;100595.97;5072867;28;19916;-66
2023/10/16 03:56:11;;;;;;;;;;;;;;;8.29;38.39;100599.16;5069698;28;20267;-66
2023/10/16 03:58:41;;;;;;;;;;;;;;;8.26;38.09;100594.13;5086026;28;20359;-66
2023/10/16 04:01:09;;;;;;;;;;;;;;;8.27;37.78;100592.31;5077540;28;19990;-67
2023/10/16 04:03:47;;;;;;;;;;;;;;;8.24;37.93;100601.50;5072081;28;19921;-68
2023/10/16 04:06:22;;;;;;;;;;;;;;;8.19;38.32;100595.88;5091303;28;19961;-67
2023/10/16 04:08:48;;;;;;;;;;;;;;;8.27;39.05;100601.16;5094241;28;19919;-67
2023/10/16 04:11:14;;;;;;;;;;;;;;;8.31;38.70;100615.03;5073230;28;20339;-68
2023/10/16 04:13:47;;;;;;;;;;;;;;;8.32;38.28;100622.88;5073270;28;19917;-67
2023/10/16 04:16:18;;;;;;;;;;;;;;;8.30;38.55;100608.84;5070262;28;19924;-66
2023/10/16 04:18:46;;;;;;;;;;;;;;;8.33;38.58;100623.72;5085598;28;20421;-67
2023/10/16 04:26:29;;;;;;;;;;;;;;;8.31;37.33;100610.50;5094045;28;20006;-68
2023/10/16 04:31:44;;;;;;;;;;;;;;;8.42;37.96;100616.53;5075727;28;19920;-68
2023/10/16 04:36:53;;;;;;;;;;;;;;;8.41;37.58;100617.47;5073686;28;19921;-67
2023/10/16 04:41:26;;;;;;;;;;;;;;;8.36;37.52;100625.19;5072245;28;19939;-68
2023/10/16 04:45:24;;;;;;;;;;;;;;;8.29;37.64;100625.06;5065117;28;19916;-68
2023/10/16 05:01:33;;;;;;;;;;;;;;;8.11;38.83;100642.19;5070713;28;19924;-67
2023/10/16 05:17:21;;;;;;;;;;;;;;;8.07;38.50;100656.09;5028428;28;19963;-67
2023/10/16 05:19:52;;;;;;;;;;;;;;;8.03;38.92;100662.81;5027989;28;20247;-68
2023/10/16 06:14:09;;;;;;;;;;;;;;;7.62;39.95;100721.69;5069456;28;19912;-68
2023/10/16 06:16:35;;;;;;;;;;;;;;;7.61;39.93;100717.34;5057897;28;19923;-68
2023/10/16 06:19:07;;;;;;;;;;;;;;;7.59;39.50;100733.53;5091249;28;20007;-68
2023/10/16 06:21:32;;;;;;;;;;;;;;;7.61;39.01;100730.72;5079281;28;19913;-68
2023/10/16 06:23:58;;;;;;;;;;;;;;;7.63;38.93;100724.19;5071510;28;20042;-67
2023/10/16 06:26:27;;;;;;;;;;;;;;;7.63;38.77;100723.34;5070657;28;19947;-65
2023/10/16 06:28:52;;;;;;;;;;;;;;;7.66;39.05;100729.19;5074135;28;19917;-65
2023/10/16 06:31:23;;;;;;;;;;;;;;;7.69;39.43;100739.56;5083883;28;19938;-66
2023/10/16 06:33:56;;;;;;;;;;;;;;;7.74;39.51;100741.72;5091147;28;19919;-66
2023/10/16 06:36:23;;;;;;;;;;;;;;;7.78;39.06;100740.38;5084890;28;19920;-66
2023/10/16 06:38:52;;;;;;;;;;;;;;;7.83;39.33;100748.72;5071174;28;19913;-66
2023/10/16 06:41:18;;;;;;;;;;;;;;;7.84;39.01;100750.41;5071076;28;19912;-66
2023/10/16 06:43:47;;;;;;;;;;;;;;;7.87;38.86;100751.91;5069946;28;19928;-66
2023/10/16 06:46:17;;;;;;;;;;;;;;;7.93;40.09;100754.75;5072134;28;19912;-66
2023/10/16 06:48:43;;;;;;;;;;;;;;;8.01;39.48;100750.41;5085996;28;20455;-66
2023/10/16 06:51:14;;;;;;;;;;;;;;;8.03;39.48;100762.59;5075280;28;20006;-66
2023/10/16 06:53:39;;;;;;;;;;;;;;;8.02;40.62;100760.06;5051096;28;20277;-66
2023/10/16 06:56:05;;;;;;;;;;;;;;;8.10;39.59;100760.91;5077438;28;19916;-66
2023/10/16 06:58:31;;;;;;;;;;;;;;;8.18;39.65;100764.56;5043783;28;20335;-66
2023/10/16 07:00:57;;;;;;;;;;;;;;;8.24;39.38;100761.22;5072548;28;19912;-65
2023/10/16 07:03:22;;;;;;;;;;;;;;;8.29;39.63;100766.88;5075212;28;19995;-65
2023/10/16 07:05:48;;;;;;;;;;;;;;;8.32;39.09;100766.53;5074985;28;19944;-66
2023/10/16 07:08:17;;;;;;;;;;;;;;;8.36;38.87;100769.69;5077389;28;19920;-65
2023/10/16 07:10:50;;;;;;;;;;;;;;;8.39;38.67;100774.72;5083202;28;19970;-66
2023/10/16 07:13:26;;;;;;;;;;;;;;;8.41;38.68;100780.72;5090743;28;19920;-66
2023/10/16 07:15:53;;;;;;;;;;;;;;;8.42;38.67;100785.94;5085979;28;19917;-66
2023/10/16 07:18:24;;;;;;;;;;;;;;;8.47;38.63;100782.78;5076585;28;20391;-65
2023/10/16 07:23:34;;;;;;;;;;;;;;;8.66;38.74;100790.38;5086213;28;19912;-65
2023/10/16 07:26:00;;;;;;;;;;;;;;;8.75;38.04;100783.16;5082664;28;19999;-65
2023/10/16 07:28:26;;;;;;;;;;;;;;;8.83;37.16;100790.31;5096372;28;19948;-65
2023/10/16 07:30:52;;;;;;;;;;;;;;;8.93;37.27;100782.91;5076855;28;19919;-65
2023/10/16 07:33:20;;;;;;;;;;;;;;;9.04;36.84;100787.84;5073290;28;19912;-65
2023/10/16 07:35:46;;;;;;;;;;;;;;;9.10;37.15;100784.50;5074392;28;19986;-65
2023/10/16 07:38:20;;;;;;;;;;;;;;;9.17;36.73;100781.09;5074766;28;19965;-65
2023/10/16 07:40:51;;;;;;;;;;;;;;;9.27;36.51;100779.03;5075800;28;20286;-66
2023/10/16 07:43:17;;;;;;;;;;;;;;;9.35;36.59;100783.50;5074946;28;19920;-65
2023/10/16 07:45:44;;;;;;;;;;;;;;;9.43;36.21;100781.59;5074755;28;19912;-65
2023/10/16 07:48:23;;;;;;;;;;;;;;;9.53;36.27;100785.88;5074907;28;19989;-66
2023/10/16 07:50:48;;;;;;;;;;;;;;;9.59;35.94;100791.38;5074084;28;19912;-66
2023/10/16 07:53:17;;;;;;;;;;;;;;;9.58;34.49;100794.22;5074020;28;20440;-65
2023/10/16 07:55:51;;;;;;;;;;;;;;;9.63;35.14;100794.53;5085059;28;19995;-65
2023/10/16 07:58:23;;;;;;;;;;;;;;;9.71;34.86;100788.28;5097527;28;19916;-65
2023/10/16 08:03:41;;;;;;;;;;;;;;;9.81;34.74;100788.88;5093512;28;19912;-65
2023/10/16 08:06:16;;;;;;;;;;;;;;;9.85;33.69;100791.00;5096123;28;20361;-65
2023/10/16 08:08:42;;;;;;;;;;;;;;;9.97;34.13;100799.44;5080559;28;19919;-65
2023/10/16 08:11:13;;;;;;;;;;;;;;;10.01;34.35;100799.91;5092928;28;20411;-65
2023/10/16 08:13:46;;;;;;;;;;;;;;;9.95;33.14;100811.38;5095998;28;19923;-65
2023/10/16 08:16:12;;;;;;;;;;;;;;;10.02;33.35;100812.31;5096900;28;20003;-65
2023/10/16 08:18:40;;;;;;;;;;;;;;;10.10;33.18;100819.47;5104428;28;19912;-65
2023/10/16 08:21:06;;;;;;;;;;;;;;;10.10;32.84;100814.91;5093961;28;19915;-65
2023/10/16 08:23:34;;;;;;;;;;;;;;;10.17;33.11;100818.53;5094487;28;19923;-66
2023/10/16 08:26:04;;;;;;;;;;;;;;;10.25;32.76;100823.00;5094264;28;19954;-65
2023/10/16 08:28:35;;;;;;;;;;;;;;;10.28;32.90;100818.09;5093415;28;19919;-66
2023/10/16 08:31:22;;;;;;;;;;;;;;;10.39;32.37;100819.53;5094953;28;19916;-65
2023/10/16 08:33:48;;;;;;;;;;;;;;;10.49;32.75;100821.13;5090868;28;19916;-65
2023/10/16 08:36:15;;;;;;;;;;;;;;;10.52;32.90;100823.44;5095206;28;19931;-66
2023/10/16 08:38:44;;;;;;;;;;;;;;;10.59;32.96;100822.53;5094791;28;19916;-66
2023/10/16 08:41:14;;;;;;;;;;;;;;;10.67;32.41;100818.06;5093371;28;19988;-65
2023/10/16 08:43:53;;;;;;;;;;;;;;;10.67;32.76;100831.50;5094913;28;19961;-66
2023/10/16 08:46:18;;;;;;;;;;;;;;;10.62;31.48;100834.72;5092805;28;20367;-65
2023/10/16 08:48:48;;;;;;;;;;;;;;;10.70;31.64;100831.97;5094782;28;19916;-65
2023/10/16 08:51:16;;;;;;;;;;;;;;;10.77;31.49;100837.41;5093189;28;20030;-66
2023/10/16 08:53:42;;;;;;;;;;;;;;;10.84;30.93;100828.44;5093407;28;19947;-65
2023/10/16 08:56:07;;;;;;;;;;;;;;;10.97;31.12;100827.75;5098035;28;19996;-66
2023/10/16 08:58:45;;;;;;;;;;;;;;;11.06;30.77;100835.75;5093953;28;19920;-65
2023/10/16 09:01:13;;;;;;;;;;;;;;;11.18;30.74;100834.22;5086434;28;20373;-66
2023/10/16 09:03:44;;;;;;;;;;;;;;;11.34;30.46;100838.56;5094275;28;20335;-65
2023/10/16 09:06:13;;;;;;;;;;;;;;;11.44;29.81;100833.72;5092978;28;19912;-66
2023/10/16 09:08:41;;;;;;;;;;;;;;;11.57;29.99;100830.31;5094533;28;20019;-66
2023/10/16 09:11:07;;;;;;;;;;;;;;;11.74;30.22;100834.44;5089807;28;20008;-66
2023/10/16 09:13:35;;;;;;;;;;;;;;;11.85;29.95;100832.25;5094353;28;19916;-66
2023/10/16 09:16:02;;;;;;;;;;;;;;;11.98;28.94;100835.94;5094849;28;19997;-66
2023/10/16 09:18:27;;;;;;;;;;;;;;;11.96;28.75;100832.59;5092203;28;19934;-66
2023/10/16 09:20:56;;;;;;;;;;;;;;;12.11;29.71;100826.28;5089476;28;19920;-66
2023/10/16 09:23:23;;;;;;;;;;;;;;;12.30;28.82;100835.56;5074545;28;19948;-66
2023/10/16 09:25:55;;;;;;;;;;;;;;;12.37;28.74;100834.59;5093617;28;20493;-65
2023/10/16 09:28:20;;;;;;;;;;;;;;;12.48;28.67;100840.44;5092925;28;20373;-66
2023/10/16 09:30:46;;;;;;;;;;;;;;;12.64;28.58;100834.75;5092611;28;19957;-66
2023/10/16 09:33:13;;;;;;;;;;;;;;;12.87;28.98;100831.78;5091810;28;20344;-66
2023/10/16 09:35:43;;;;;;;;;;;;;;;13.02;29.27;100836.19;5092089;28;19922;-66
2023/10/16 09:38:17;;;;;;;;;;;;;;;13.09;28.64;100837.03;5092620;28;19922;-66
2023/10/16 09:40:44;;;;;;;;;;;;;;;13.18;27.22;100835.84;5079894;28;19912;-66
2023/10/16 09:43:24;;;;;;;;;;;;;;;13.38;29.72;100835.94;5092124;28;19912;-66
2023/10/16 09:45:50;;;;;;;;;;;;;;;13.45;27.10;100838.66;5084440;28;19912;-66
2023/10/16 09:48:31;;;;;;;;;;;;;;;13.59;27.63;100837.66;5073615;28;19915;-66
2023/10/16 09:50:57;;;;;;;;;;;;;;;13.74;26.91;100832.06;5092929;28;20333;-66
2023/10/16 09:53:22;;;;;;;;;;;;;;;13.89;27.94;100838.13;5089606;28;19920;-66
2023/10/16 09:55:52;;;;;;;;;;;;;;;14.07;26.93;100836.66;5094464;28;20276;-67
2023/10/16 09:58:18;;;;;;;;;;;;;;;14.20;27.50;100828.56;5113964;27;19947;-66
2023/10/16 10:00:49;;;;;;;;;;;;;;;14.33;27.44;100833.13;5091415;28;20373;-66
2023/10/16 10:03:14;;;;;;;;;;;;;;;14.44;26.49;100831.66;5091683;28;19937;-66
2023/10/16 10:05:55;;;;;;;;;;;;;;;14.70;27.29;100830.81;5090559;28;19916;-66
2023/10/16 10:08:27;;;;;;;;;;;;;;;14.90;26.73;100834.28;5090994;28;19928;-66
2023/10/16 10:13:43;;;;;;;;;;;;;;;15.39;26.87;100848.22;5090490;28;19958;-66
2023/10/16 10:16:14;;;;;;;;;;;;;;;15.47;25.66;100845.28;5095491;28;19960;-66
2023/10/16 10:18:46;;;;;;;;;;;;;;;15.70;26.25;100851.19;5093021;28;19912;-66
2023/10/16 10:21:18;;;;;;;;;;;;;;;15.56;24.87;100848.53;5091261;28;19920;-66
2023/10/16 10:23:46;;;;;;;;;;;;;;;15.79;25.43;100844.50;5091053;28;19920;-66
2023/10/16 10:26:15;;;;;;;;;;;;;;;15.95;25.57;100841.25;5092155;28;19912;-66
2023/10/16 10:28:41;;;;;;;;;;;;;;;15.99;25.18;100836.22;5092431;28;20367;-66
2023/10/16 10:31:06;;;;;;;;;;;;;;;16.18;25.50;100837.13;5090000;28;19916;-66
2023/10/16 10:33:38;;;;;;;;;;;;;;;16.34;24.89;100833.00;5091649;28;20067;-66
2023/10/16 10:36:22;;;;;;;;;;;;;;;16.53;24.85;100825.72;5088840;28;20015;-66
2023/10/16 10:38:47;;;;;;;;;;;;;;;16.71;25.52;100827.63;5089826;28;19944;-66
2023/10/16 10:41:13;;;;;;;;;;;;;;;16.87;25.04;100831.69;5092344;28;20380;-66
2023/10/16 10:43:44;;;;;;;;;;;;;;;16.87;24.41;100831.69;5090664;28;20365;-66
2023/10/16 10:46:10;;;;;;;;;;;;;;;16.90;23.43;100821.19;5092114;28;19962;-66
2023/10/16 10:48:38;;;;;;;;;;;;;;;16.92;22.56;100834.50;5092907;28;19959;-66
2023/10/16 10:51:05;;;;;;;;;;;;;;;16.90;23.38;100820.34;5096264;28;19916;-67
2023/10/16 10:53:30;;;;;;;;;;;;;;;17.03;23.74;100829.19;5096460;28;19919;-67
2023/10/16 10:55:56;;;;;;;;;;;;;;;17.16;23.69;100828.19;5100528;28;19916;-66
2023/10/16 10:58:25;;;;;;;;;;;;;;;17.04;24.89;100838.13;5095843;28;19944;-66
2023/10/16 11:00:50;;;;;;;;;;;;;;;16.85;22.65;100818.31;5094176;28;19950;-66
2023/10/16 11:03:22;;;;;;;;;;;;;;;16.97;23.92;100823.81;5095979;28;20246;-66
2023/10/16 11:05:49;;;;;;;;;;;;;;;16.93;23.06;100831.56;5094580;28;19916;-66
2023/10/16 11:08:17;;;;;;;;;;;;;;;17.08;24.15;100822.22;5094554;28;19923;-66
2023/10/16 11:10:46;;;;;;;;;;;;;;;16.93;21.83;100825.34;5095862;28;19927;-66
2023/10/16 11:13:12;;;;;;;;;;;;;;;16.79;22.36;100825.47;5085784;28;19946;-66
2023/10/16 11:15:48;;;;;;;;;;;;;;;16.94;23.52;100819.69;5095574;28;20257;-66
2023/10/16 11:18:13;;;;;;;;;;;;;;;16.95;23.02;100812.38;5094888;28;20384;-66
2023/10/16 11:20:45;;;;;;;;;;;;;;;17.08;22.45;100814.09;5076498;28;19919;-66
2023/10/16 11:23:14;;;;;;;;;;;;;;;17.26;21.48;100814.06;5095626;28;19919;-66
2023/10/16 11:25:44;;;;;;;;;;;;;;;17.12;20.88;100810.66;5094065;28;19923;-66
2023/10/16 11:28:10;;;;;;;;;;;;;;;17.14;21.61;100808.59;5094245;28;20300;-66
2023/10/16 11:30:38;;;;;;;;;;;;;;;17.37;23.84;100810.56;5093345;28;19972;-66
2023/10/16 11:33:04;;;;;;;;;;;;;;;17.41;23.75;100794.63;5093593;28;19912;-66
2023/10/16 11:35:34;;;;;;;;;;;;;;;17.72;22.26;100811.75;5094393;28;19970;-66
2023/10/16 11:37:59;;;;;;;;;;;;;;;17.88;22.21;100804.81;5093260;28;20392;-66
2023/10/16 11:40:32;;;;;;;;;;;;;;;18.02;23.24;100806.28;5095140;28;19912;-66
2023/10/16 11:43:02;;;;;;;;;;;;;;;18.01;22.21;100796.44;5094937;28;20556;-66
2023/10/16 11:45:32;;;;;;;;;;;;;;;18.05;23.10;100796.81;5092975;28;19938;-66
2023/10/16 11:50:50;;;;;;;;;;;;;;;18.01;22.49;100788.28;5089440;28;19912;-66
2023/10/16 11:53:15;;;;;;;;;;;;;;;18.06;22.03;100776.72;5095443;28;19916;-66
2023/10/16 11:55:42;;;;;;;;;;;;;;;18.01;21.16;100779.31;5093706;28;19920;-67
2023/10/16 11:58:08;;;;;;;;;;;;;;;17.98;21.17;100781.44;5094992;28;19912;-66
2023/10/16 12:00:35;;;;;;;;;;;;;;;18.11;21.84;100788.56;5094354;28;20073;-66
2023/10/16 12:03:07;;;;;;;;;;;;;;;18.20;22.21;100786.28;5091181;28;19912;-66
2023/10/16 12:05:35;;;;;;;;;;;;;;;18.12;20.98;100778.50;5093961;28;19919;-67
2023/10/16 12:08:02;;;;;;;;;;;;;;;18.19;21.31;100796.34;5093075;28;19923;-67
2023/10/16 12:10:28;;;;;;;;;;;;;;;18.38;22.44;100793.50;5089838;28;20288;-67
2023/10/16 12:12:55;;;;;;;;;;;;;;;18.34;21.61;100801.31;5093513;28;19916;-67
2023/10/16 12:15:22;;;;;;;;;;;;;;;18.54;20.70;100792.78;5093323;28;19916;-67
2023/10/16 12:17:48;;;;;;;;;;;;;;;18.70;21.47;100788.50;5093466;28;19996;-67
2023/10/16 12:20:14;;;;;;;;;;;;;;;18.97;22.06;100782.53;5091090;28;19952;-67
2023/10/16 12:22:39;;;;;;;;;;;;;;;19.04;20.95;100790.59;5093717;28;19931;-67
2023/10/16 12:25:09;;;;;;;;;;;;;;;19.27;21.33;100781.47;5095817;28;19912;-67
2023/10/16 12:27:36;;;;;;;;;;;;;;;19.31;21.98;100782.66;5092377;28;19912;-67
2023/10/16 12:30:02;;;;;;;;;;;;;;;19.27;21.41;100786.94;5093460;28;19920;-67
2023/10/16 12:32:28;;;;;;;;;;;;;;;19.23;21.75;100783.88;5093605;28;19916;-67
2023/10/16 12:34:54;;;;;;;;;;;;;;;19.16;20.32;100785.91;5093686;28;19924;-65
2023/10/16 12:37:22;;;;;;;;;;;;;;;19.02;21.42;100792.69;5094570;28;20280;-65
2023/10/16 12:39:48;;;;;;;;;;;;;;;18.95;20.52;100792.84;5075090;28;19916;-65
2023/10/16 12:42:14;;;;;;;;;;;;;;;18.93;22.95;100786.81;5093022;28;19938;-65
2023/10/16 12:44:39;;;;;;;;;;;;;;;18.87;22.75;100785.91;5092054;28;20345;-65
2023/10/16 12:47:05;;;;;;;;;;;;;;;18.94;21.97;100774.84;5093460;28;19912;-65
2023/10/16 12:49:30;;;;;;;;;;;;;;;19.00;21.89;100779.34;5092566;28;20006;-65
2023/10/16 12:51:56;;;;;;;;;;;;;;;18.87;21.84;100785.91;5092157;28;19916;-65
2023/10/16 12:54:24;;;;;;;;;;;;;;;18.72;22.52;100783.66;5092391;28;19962;-66
2023/10/16 12:56:52;;;;;;;;;;;;;;;18.47;21.46;100785.81;5096402;28;19916;-65
2023/10/16 12:59:18;;;;;;;;;;;;;;;18.55;22.03;100783.56;5091015;28;19912;-65
2023/10/16 13:01:45;;;;;;;;;;;;;;;18.55;22.37;100791.72;5093026;28;19923;-65
2023/10/16 13:04:14;;;;;;;;;;;;;;;18.58;21.86;100784.97;5092393;28;19912;-65
2023/10/16 13:06:40;;;;;;;;;;;;;;;18.65;23.01;100780.22;5094559;28;20016;-65
2023/10/16 13:09:05;;;;;;;;;;;;;;;18.70;23.88;100776.78;5092868;28;20379;-65
2023/10/16 13:11:31;;;;;;;;;;;;;;;18.52;21.56;100778.59;5091670;28;19920;-65
2023/10/16 13:13:57;;;;;;;;;;;;;;;18.54;21.70;100778.38;5093277;28;19918;-65
2023/10/16 13:16:26;;;;;;;;;;;;;;;18.70;23.11;100769.47;5089028;28;20003;-65
2023/10/16 13:19:00;;;;;;;;;;;;;;;18.80;22.55;100768.03;5092745;28;19950;-65
2023/10/16 13:21:33;;;;;;;;;;;;;;;18.67;21.43;100774.56;5091835;28;19912;-65
2023/10/16 13:24:16;;;;;;;;;;;;;;;18.69;23.21;100773.25;5093616;28;19922;-66
2023/10/16 13:26:41;;;;;;;;;;;;;;;18.74;21.69;100769.81;5091913;28;19938;-65
2023/10/16 13:29:07;;;;;;;;;;;;;;;19.19;22.13;100769.09;5091529;28;19912;-66
2023/10/16 13:31:37;;;;;;;;;;;;;;;19.51;21.60;100774.84;5092740;28;20345;-66
2023/10/16 13:34:03;;;;;;;;;;;;;;;19.76;21.51;100767.38;5090837;28;19913;-66
2023/10/16 13:36:35;;;;;;;;;;;;;;;19.91;20.10;100771.19;5093312;28;20006;-66
2023/10/16 13:39:01;;;;;;;;;;;;;;;20.20;20.42;100757.44;5092538;28;20430;-66
2023/10/16 13:41:28;;;;;;;;;;;;;;;20.42;20.88;100752.00;5091093;28;19939;-66
2023/10/16 13:43:55;;;;;;;;;;;;;;;20.50;21.29;100759.78;5092353;28;20082;-66
2023/10/16 13:46:20;;;;;;;;;;;;;;;20.56;22.02;100747.03;5090036;28;19938;-66
2023/10/16 13:48:46;;;;;;;;;;;;;;;20.37;20.21;100759.31;5093316;28;19916;-65
2023/10/16 13:51:16;;;;;;;;;;;;;;;19.91;20.66;100749.38;5092293;28;19956;-66
2023/10/16 13:53:42;;;;;;;;;;;;;;;19.68;21.09;100761.22;5090588;28;20380;-66
2023/10/16 13:56:07;;;;;;;;;;;;;;;19.42;22.07;100754.53;5100048;28;19922;-66
2023/10/16 13:58:33;;;;;;;;;;;;;;;19.33;21.46;100756.84;5091404;28;19955;-66
2023/10/16 14:00:58;;;;;;;;;;;;;;;19.24;21.71;100750.13;5092327;28;19912;-66
2023/10/16 14:03:24;;;;;;;;;;;;;;;19.03;21.22;100753.53;5092560;28;19911;-66
2023/10/16 14:05:52;;;;;;;;;;;;;;;18.89;20.53;100753.00;5089919;28;19931;-65
2023/10/16 14:08:25;;;;;;;;;;;;;;;18.80;21.50;100746.25;5074818;28;20330;-66
2023/10/16 14:10:57;;;;;;;;;;;;;;;18.59;21.52;100748.56;5090519;28;20023;-66
2023/10/16 14:13:29;;;;;;;;;;;;;;;18.28;21.87;100763.38;5092657;28;19923;-66
2023/10/16 14:16:11;;;;;;;;;;;;;;;17.91;21.72;100752.75;5092691;28;19931;-66
2023/10/16 14:18:41;;;;;;;;;;;;;;;17.73;22.46;100751.72;5091116;28;19954;-66
2023/10/16 14:21:10;;;;;;;;;;;;;;;17.70;22.45;100754.06;5093405;28;19912;-66
2023/10/16 14:23:38;;;;;;;;;;;;;;;17.71;22.47;100758.47;5091957;28;20397;-66
2023/10/16 14:26:10;;;;;;;;;;;;;;;17.53;22.87;100752.06;5095927;28;19985;-67
2023/10/16 14:28:51;;;;;;;;;;;;;;;17.40;23.00;100754.97;5096957;28;19912;-66
2023/10/16 14:31:20;;;;;;;;;;;;;;;17.30;23.35;100750.09;5094832;28;19964;-66
2023/10/16 14:33:46;;;;;;;;;;;;;;;17.34;24.27;100739.59;5096614;28;19916;-66
2023/10/16 14:36:18;;;;;;;;;;;;;;;17.35;23.63;100739.38;5094655;28;19961;-66